Talkeetna, AK

12:35 PM AKDT on September 22, 2014 (GMT -0800)
Willow | Change Station
CLOSE
Current Station
Airport
Location: Willow,
Elevation: 220 ft
Nearby Weather Stations

Elev 220 ft 61.75 °N, 150.05 °W | Updated 1056 days ago

Clear
Clear
46 °F
Feels Like 46 °F
N
6
Wind Variable Wind from NE
Gusts mph

Today
High -- | Low -- °F
--% Chance of Precip.
Yesterday
High -- | Low -- °F
Precip. -- in
7:43 AM 7:59 PM
Waning Crescent, 2% visible
Pressure 29.67 in
Visibility 7.0 miles
Clouds Scattered Clouds 800 ft
Mostly Cloudy 1500 ft
Overcast 3000 ft
Dew Point 23 °F
Humidity 39%
Rainfall 0.00 in
Snow Depth 1 in , 0 in , 0 in
UV 0 out of 12
Pollen Not available.
Air Quality Not available.
Flu Activity Not available.
METAR PAUO 010053Z 01005KT 7SM -SN SCT008 BKN015 OVC030 M05/M07 A2967 RMK NOSPECI LAST

More Conditions Fewer Conditions

Pressure 29.67 in
Visibility 7.0 miles
Clouds Scattered Clouds 800 ft
Mostly Cloudy 1500 ft
Overcast 3000 ft
Dew Point 23 °F
Humidity 39%
Rainfall 0.00 in
Snow Depth 1 in , 0 in , 0 in
UV 0 out of 12
Pollen Not available.
Air Quality Not available.
Flu Activity Not available.
METAR PAUO 010053Z 01005KT 7SM -SN SCT008 BKN015 OVC030 M05/M07 A2967 RMK NOSPECI LAST

More Conditions Fewer Conditions

10-Day Weather Forecast

Almanac

Astronomy

Sep. 22, 2014 Rise Set
Actual Time 7:43 AM AKDT 7:59 PM AKDT
Civil Twilight 6:59 AM AKDT 8:43 PM AKDT
Nautical Twilight 6:04 AM AKDT 9:37 PM AKDT
Astronomical Twilight 5:04 AM AKDT 10:37 PM AKDT
Moon 6:06 AM AKDT 7:19 PM AKDT
Length of Visible Light 13h 44m
Length of Day
12h 15m
Tomorrow will be 5m 55s shorter.
Waning Crescent, 2% of the Moon is Illuminated
Today
Waning Crescent
Sep 24
New
Oct 1
First Quarter
Oct 8
Full
Oct 15
Last Quarter

Today's Extremes

State Highs State Lows

Community

WunderPhotos

Upload Photos

1,755,522 photos uploaded!

WunderBlogs® & News

Nearby

Snow Depth

Station Depth Elevation
Upper Chena 1 in 2850 ft
Fort Yukon 0 in 430 ft
Long Lake 0 in 820 ft
Grandview 9 in 1100 ft
Upper Tsaina River 0 in 1750 ft

Earthquake Activity

City Distance Mag. Time & Date
No recent earthquake activity has been reported nearby.
Minimum magnitude displayed is 2.5.

Coastal Water Temperatures

Place Temperature
No Stations Reporting

Nearby Weather Stations